DFOO/BOY METAR and TAF weather

Enter ICAO airport designator
Station Type Date Time Source
DFOO METAR 2020/09/20 01:00 UTC NOAA

DFOO 200100Z 00000KT 9999 FEW016 24/23 Q1014


Station Type Date Time Source
DFOO Decoded METAR 2020/09/20 01:00 UTC NOAA

Bobo-Dioulasso, Burkina Faso (DFOO) 11-10N 004-19W 460M
Sep 19, 2020 - 09:00 PM EDT / 2020.09.20 0100 UTC
Wind: Calm:0
Visibility: greater than 7 mile(s):0
Sky conditions: mostly clear
Temperature: 75 F (24 C)
Dew Point: 73 F (23 C)
Relative Humidity: 94%
Pressure (altimeter): 29.94 in. Hg (1014 hPa)
ob: DFOO 200100Z 00000KT 9999 FEW016 24/23 Q1014
cycle: 1

Station Type Date Time Source
DFOO TAF 2020/09/19 21:12 UTC NOAA

TAF
AMD DFOO 192105Z 1921/2018 20008KT 9999 FEW016
TEMPO 1921/1924 4000 TSRA SCT016 FEW033CB PROB30
TEMPO 2014/2024 4000 TSRA SCT016 FEW030CB

Example: see airport list